sensor_id;sensor_type;location;lat;lon;timestamp;P1;durP1;ratioP1;P2;durP2;ratioP2
21611;SDS011;47005;52.292;13.452;2023-09-07T00:00:46;7.40;;;5.60;;
21611;SDS011;47005;52.292;13.452;2023-09-07T00:03:13;8.98;;;5.93;;
21611;SDS011;47005;52.292;13.452;2023-09-07T00:05:39;7.82;;;5.22;;
21611;SDS011;47005;52.292;13.452;2023-09-07T00:08:05;7.72;;;6.07;;
21611;SDS011;47005;52.292;13.452;2023-09-07T00:10:31;9.63;;;6.85;;
21611;SDS011;47005;52.292;13.452;2023-09-07T00:13:00;7.47;;;5.45;;
21611;SDS011;47005;52.292;13.452;2023-09-07T00:15:27;7.18;;;5.45;;
21611;SDS011;47005;52.292;13.452;2023-09-07T00:17:53;9.90;;;5.57;;
21611;SDS011;47005;52.292;13.452;2023-09-07T00:20:20;7.22;;;5.50;;
21611;SDS011;47005;52.292;13.452;2023-09-07T00:22:47;8.05;;;6.03;;
21611;SDS011;47005;52.292;13.452;2023-09-07T00:25:12;7.13;;;5.40;;
21611;SDS011;47005;52.292;13.452;2023-09-07T00:27:38;9.05;;;5.88;;
21611;SDS011;47005;52.292;13.452;2023-09-07T00:30:04;7.35;;;5.00;;
21611;SDS011;47005;52.292;13.452;2023-09-07T00:32:34;6.78;;;5.25;;
21611;SDS011;47005;52.292;13.452;2023-09-07T00:35:01;9.20;;;5.32;;
21611;SDS011;47005;52.292;13.452;2023-09-07T00:37:27;7.93;;;6.25;;
21611;SDS011;47005;52.292;13.452;2023-09-07T00:39:52;6.80;;;5.68;;
21611;SDS011;47005;52.292;13.452;2023-09-07T00:42:18;9.48;;;6.45;;
21611;SDS011;47005;52.292;13.452;2023-09-07T00:44:44;8.70;;;5.93;;
21611;SDS011;47005;52.292;13.452;2023-09-07T00:47:09;9.15;;;5.93;;
21611;SDS011;47005;52.292;13.452;2023-09-07T00:49:36;6.28;;;5.38;;
21611;SDS011;47005;52.292;13.452;2023-09-07T00:52:03;12.93;;;6.70;;
21611;SDS011;47005;52.292;13.452;2023-09-07T00:54:30;6.88;;;5.68;;
21611;SDS011;47005;52.292;13.452;2023-09-07T00:56:55;7.88;;;6.25;;
21611;SDS011;47005;52.292;13.452;2023-09-07T00:59:21;11.43;;;6.35;;
21611;SDS011;47005;52.292;13.452;2023-09-07T01:01:47;8.48;;;5.95;;
21611;SDS011;47005;52.292;13.452;2023-09-07T01:04:14;8.65;;;6.00;;
21611;SDS011;47005;52.292;13.452;2023-09-07T01:06:41;8.63;;;5.93;;
21611;SDS011;47005;52.292;13.452;2023-09-07T01:09:15;8.57;;;5.93;;
21611;SDS011;47005;52.292;13.452;2023-09-07T01:11:44;9.55;;;6.72;;
21611;SDS011;47005;52.292;13.452;2023-09-07T01:14:10;7.70;;;5.97;;
21611;SDS011;47005;52.292;13.452;2023-09-07T01:16:35;7.25;;;5.63;;
21611;SDS011;47005;52.292;13.452;2023-09-07T01:19:04;10.73;;;5.47;;
21611;SDS011;47005;52.292;13.452;2023-09-07T01:21:33;8.73;;;5.70;;
21611;SDS011;47005;52.292;13.452;2023-09-07T01:24:08;9.02;;;6.53;;
21611;SDS011;47005;52.292;13.452;2023-09-07T01:26:36;7.40;;;5.72;;
21611;SDS011;47005;52.292;13.452;2023-09-07T01:29:05;7.78;;;5.63;;
21611;SDS011;47005;52.292;13.452;2023-09-07T01:31:35;6.72;;;5.45;;
21611;SDS011;47005;52.292;13.452;2023-09-07T01:34:02;8.50;;;5.97;;
21611;SDS011;47005;52.292;13.452;2023-09-07T01:36:28;13.73;;;6.00;;
21611;SDS011;47005;52.292;13.452;2023-09-07T01:38:54;8.63;;;5.50;;
21611;SDS011;47005;52.292;13.452;2023-09-07T01:41:19;8.60;;;6.30;;
21611;SDS011;47005;52.292;13.452;2023-09-07T01:43:45;7.80;;;5.60;;
21611;SDS011;47005;52.292;13.452;2023-09-07T01:46:10;9.18;;;5.90;;
21611;SDS011;47005;52.292;13.452;2023-09-07T01:48:36;8.63;;;6.72;;
21611;SDS011;47005;52.292;13.452;2023-09-07T01:51:02;8.25;;;6.18;;
21611;SDS011;47005;52.292;13.452;2023-09-07T01:53:27;9.02;;;5.72;;
21611;SDS011;47005;52.292;13.452;2023-09-07T01:55:53;8.00;;;6.03;;
21611;SDS011;47005;52.292;13.452;2023-09-07T01:58:20;9.63;;;6.40;;
21611;SDS011;47005;52.292;13.452;2023-09-07T02:00:46;7.68;;;5.97;;
21611;SDS011;47005;52.292;13.452;2023-09-07T02:03:12;6.72;;;5.38;;
21611;SDS011;47005;52.292;13.452;2023-09-07T02:05:38;7.80;;;5.47;;
21611;SDS011;47005;52.292;13.452;2023-09-07T02:08:04;6.90;;;6.20;;
21611;SDS011;47005;52.292;13.452;2023-09-07T02:10:30;9.73;;;6.72;;
21611;SDS011;47005;52.292;13.452;2023-09-07T02:12:55;7.65;;;6.35;;
21611;SDS011;47005;52.292;13.452;2023-09-07T02:15:23;10.95;;;6.45;;
21611;SDS011;47005;52.292;13.452;2023-09-07T02:17:49;9.27;;;5.88;;
21611;SDS011;47005;52.292;13.452;2023-09-07T02:20:15;9.38;;;7.25;;
21611;SDS011;47005;52.292;13.452;2023-09-07T02:22:41;9.13;;;6.57;;
21611;SDS011;47005;52.292;13.452;2023-09-07T02:25:07;7.07;;;5.93;;
21611;SDS011;47005;52.292;13.452;2023-09-07T02:27:33;9.15;;;6.47;;
21611;SDS011;47005;52.292;13.452;2023-09-07T02:29:59;7.78;;;6.57;;
21611;SDS011;47005;52.292;13.452;2023-09-07T02:32:24;9.35;;;6.45;;
21611;SDS011;47005;52.292;13.452;2023-09-07T02:34:50;7.70;;;5.90;;
21611;SDS011;47005;52.292;13.452;2023-09-07T02:37:16;8.38;;;6.55;;
21611;SDS011;47005;52.292;13.452;2023-09-07T02:39:42;8.27;;;5.97;;
21611;SDS011;47005;52.292;13.452;2023-09-07T02:42:08;9.85;;;6.95;;
21611;SDS011;47005;52.292;13.452;2023-09-07T02:44:34;10.35;;;7.07;;
21611;SDS011;47005;52.292;13.452;2023-09-07T02:47:00;8.70;;;6.60;;
21611;SDS011;47005;52.292;13.452;2023-09-07T02:49:26;10.98;;;7.22;;
21611;SDS011;47005;52.292;13.452;2023-09-07T02:51:52;6.97;;;5.70;;
21611;SDS011;47005;52.292;13.452;2023-09-07T02:54:18;8.82;;;5.97;;
21611;SDS011;47005;52.292;13.452;2023-09-07T02:56:43;7.30;;;6.28;;
21611;SDS011;47005;52.292;13.452;2023-09-07T02:59:09;9.02;;;6.38;;
21611;SDS011;47005;52.292;13.452;2023-09-07T03:01:34;12.02;;;7.18;;
21611;SDS011;47005;52.292;13.452;2023-09-07T03:04:00;8.77;;;6.22;;
21611;SDS011;47005;52.292;13.452;2023-09-07T03:06:26;9.18;;;7.13;;
21611;SDS011;47005;52.292;13.452;2023-09-07T03:08:52;9.07;;;7.07;;
21611;SDS011;47005;52.292;13.452;2023-09-07T03:11:17;8.27;;;5.85;;
21611;SDS011;47005;52.292;13.452;2023-09-07T03:13:43;11.70;;;6.18;;
21611;SDS011;47005;52.292;13.452;2023-09-07T03:16:09;8.20;;;5.43;;
21611;SDS011;47005;52.292;13.452;2023-09-07T03:18:35;9.63;;;6.80;;
21611;SDS011;47005;52.292;13.452;2023-09-07T03:21:01;9.68;;;7.40;;
21611;SDS011;47005;52.292;13.452;2023-09-07T03:23:31;10.57;;;8.35;;
21611;SDS011;47005;52.292;13.452;2023-09-07T03:25:58;9.70;;;7.75;;
21611;SDS011;47005;52.292;13.452;2023-09-07T03:28:24;9.90;;;7.32;;
21611;SDS011;47005;52.292;13.452;2023-09-07T03:30:50;11.43;;;7.93;;
21611;SDS011;47005;52.292;13.452;2023-09-07T03:33:19;22.45;;;12.90;;
21611;SDS011;47005;52.292;13.452;2023-09-07T03:35:45;17.60;;;12.02;;
21611;SDS011;47005;52.292;13.452;2023-09-07T03:38:12;17.73;;;12.98;;
21611;SDS011;47005;52.292;13.452;2023-09-07T03:40:38;21.33;;;14.38;;
21611;SDS011;47005;52.292;13.452;2023-09-07T03:43:03;15.98;;;12.25;;
21611;SDS011;47005;52.292;13.452;2023-09-07T03:45:29;14.30;;;10.23;;
21611;SDS011;47005;52.292;13.452;2023-09-07T03:47:55;13.25;;;9.20;;
21611;SDS011;47005;52.292;13.452;2023-09-07T03:50:21;18.77;;;10.43;;
21611;SDS011;47005;52.292;13.452;2023-09-07T03:52:47;13.48;;;9.57;;
21611;SDS011;47005;52.292;13.452;2023-09-07T03:55:12;12.70;;;9.93;;
21611;SDS011;47005;52.292;13.452;2023-09-07T03:57:39;13.93;;;10.13;;
21611;SDS011;47005;52.292;13.452;2023-09-07T04:00:04;12.50;;;9.40;;
21611;SDS011;47005;52.292;13.452;2023-09-07T04:02:33;11.98;;;8.48;;
21611;SDS011;47005;52.292;13.452;2023-09-07T04:04:59;11.95;;;8.88;;
21611;SDS011;47005;52.292;13.452;2023-09-07T04:07:26;13.32;;;9.02;;
21611;SDS011;47005;52.292;13.452;2023-09-07T04:09:52;10.07;;;8.05;;
21611;SDS011;47005;52.292;13.452;2023-09-07T04:12:18;9.48;;;6.72;;
21611;SDS011;47005;52.292;13.452;2023-09-07T04:14:43;9.38;;;7.88;;
21611;SDS011;47005;52.292;13.452;2023-09-07T04:17:09;9.30;;;7.07;;
21611;SDS011;47005;52.292;13.452;2023-09-07T04:19:35;10.90;;;8.25;;
21611;SDS011;47005;52.292;13.452;2023-09-07T04:22:01;14.30;;;8.45;;
21611;SDS011;47005;52.292;13.452;2023-09-07T04:24:27;9.65;;;6.80;;
21611;SDS011;47005;52.292;13.452;2023-09-07T04:26:52;10.73;;;7.72;;
21611;SDS011;47005;52.292;13.452;2023-09-07T04:29:22;8.60;;;7.60;;
21611;SDS011;47005;52.292;13.452;2023-09-07T04:31:48;10.40;;;6.72;;
21611;SDS011;47005;52.292;13.452;2023-09-07T04:34:14;9.90;;;7.18;;
21611;SDS011;47005;52.292;13.452;2023-09-07T04:36:39;8.93;;;6.78;;
21611;SDS011;47005;52.292;13.452;2023-09-07T04:39:05;11.48;;;7.53;;
21611;SDS011;47005;52.292;13.452;2023-09-07T04:41:30;8.93;;;6.95;;
21611;SDS011;47005;52.292;13.452;2023-09-07T04:43:56;12.13;;;6.97;;
21611;SDS011;47005;52.292;13.452;2023-09-07T04:46:22;11.35;;;7.13;;
21611;SDS011;47005;52.292;13.452;2023-09-07T04:48:48;9.90;;;7.03;;
21611;SDS011;47005;52.292;13.452;2023-09-07T04:51:14;8.80;;;6.82;;
21611;SDS011;47005;52.292;13.452;2023-09-07T04:53:39;9.30;;;6.75;;
21611;SDS011;47005;52.292;13.452;2023-09-07T04:56:06;9.02;;;7.35;;
21611;SDS011;47005;52.292;13.452;2023-09-07T04:58:35;10.20;;;7.65;;
21611;SDS011;47005;52.292;13.452;2023-09-07T05:01:03;10.70;;;7.32;;
21611;SDS011;47005;52.292;13.452;2023-09-07T05:03:29;11.20;;;7.15;;
21611;SDS011;47005;52.292;13.452;2023-09-07T05:05:55;10.88;;;6.10;;
21611;SDS011;47005;52.292;13.452;2023-09-07T05:08:21;9.98;;;7.70;;
21611;SDS011;47005;52.292;13.452;2023-09-07T05:10:49;10.57;;;6.80;;
21611;SDS011;47005;52.292;13.452;2023-09-07T05:13:19;9.75;;;7.13;;
21611;SDS011;47005;52.292;13.452;2023-09-07T05:15:52;9.65;;;6.85;;
21611;SDS011;47005;52.292;13.452;2023-09-07T05:18:18;10.90;;;6.32;;
21611;SDS011;47005;52.292;13.452;2023-09-07T05:20:44;11.85;;;6.97;;
21611;SDS011;47005;52.292;13.452;2023-09-07T05:23:14;10.68;;;7.82;;
21611;SDS011;47005;52.292;13.452;2023-09-07T05:25:44;10.82;;;6.38;;
21611;SDS011;47005;52.292;13.452;2023-09-07T05:28:12;11.02;;;7.45;;
21611;SDS011;47005;52.292;13.452;2023-09-07T05:30:38;9.55;;;7.95;;
21611;SDS011;47005;52.292;13.452;2023-09-07T05:33:04;8.80;;;7.75;;
21611;SDS011;47005;52.292;13.452;2023-09-07T05:35:29;13.30;;;8.05;;
21611;SDS011;47005;52.292;13.452;2023-09-07T05:37:57;10.93;;;6.70;;
21611;SDS011;47005;52.292;13.452;2023-09-07T05:40:23;11.18;;;8.98;;
21611;SDS011;47005;52.292;13.452;2023-09-07T05:42:49;10.40;;;7.40;;
21611;SDS011;47005;52.292;13.452;2023-09-07T05:45:15;7.80;;;6.05;;
21611;SDS011;47005;52.292;13.452;2023-09-07T05:47:40;11.88;;;7.60;;
21611;SDS011;47005;52.292;13.452;2023-09-07T05:50:06;11.57;;;7.43;;
21611;SDS011;47005;52.292;13.452;2023-09-07T05:52:32;12.48;;;7.43;;
21611;SDS011;47005;52.292;13.452;2023-09-07T05:54:58;15.05;;;6.68;;
21611;SDS011;47005;52.292;13.452;2023-09-07T05:57:23;12.85;;;6.30;;
21611;SDS011;47005;52.292;13.452;2023-09-07T05:59:49;8.80;;;6.57;;
21611;SDS011;47005;52.292;13.452;2023-09-07T06:02:14;10.98;;;7.60;;
21611;SDS011;47005;52.292;13.452;2023-09-07T06:04:40;10.07;;;8.10;;
21611;SDS011;47005;52.292;13.452;2023-09-07T06:07:06;11.07;;;7.57;;
21611;SDS011;47005;52.292;13.452;2023-09-07T06:09:31;9.48;;;7.20;;
21611;SDS011;47005;52.292;13.452;2023-09-07T06:11:57;8.48;;;6.00;;
21611;SDS011;47005;52.292;13.452;2023-09-07T06:14:22;14.50;;;6.57;;
21611;SDS011;47005;52.292;13.452;2023-09-07T06:16:48;9.75;;;7.63;;
21611;SDS011;47005;52.292;13.452;2023-09-07T06:19:14;10.05;;;7.80;;
21611;SDS011;47005;52.292;13.452;2023-09-07T06:21:39;8.50;;;7.53;;
21611;SDS011;47005;52.292;13.452;2023-09-07T06:24:05;13.52;;;7.72;;
21611;SDS011;47005;52.292;13.452;2023-09-07T06:26:32;12.65;;;7.68;;
21611;SDS011;47005;52.292;13.452;2023-09-07T06:28:57;8.70;;;6.93;;
21611;SDS011;47005;52.292;13.452;2023-09-07T06:31:23;12.63;;;8.15;;
21611;SDS011;47005;52.292;13.452;2023-09-07T06:33:48;11.98;;;7.97;;
21611;SDS011;47005;52.292;13.452;2023-09-07T06:36:14;9.00;;;7.18;;
21611;SDS011;47005;52.292;13.452;2023-09-07T06:38:40;11.15;;;7.93;;
21611;SDS011;47005;52.292;13.452;2023-09-07T06:41:05;10.27;;;7.40;;
21611;SDS011;47005;52.292;13.452;2023-09-07T06:43:32;10.25;;;7.65;;
21611;SDS011;47005;52.292;13.452;2023-09-07T06:46:16;12.02;;;8.07;;
21611;SDS011;47005;52.292;13.452;2023-09-07T06:48:42;9.70;;;7.47;;
21611;SDS011;47005;52.292;13.452;2023-09-07T06:51:07;9.13;;;6.70;;
21611;SDS011;47005;52.292;13.452;2023-09-07T06:53:34;8.63;;;6.50;;
21611;SDS011;47005;52.292;13.452;2023-09-07T06:56:00;11.13;;;7.40;;
21611;SDS011;47005;52.292;13.452;2023-09-07T06:58:27;10.73;;;8.02;;
21611;SDS011;47005;52.292;13.452;2023-09-07T07:00:56;9.95;;;7.43;;
21611;SDS011;47005;52.292;13.452;2023-09-07T07:03:24;10.18;;;7.45;;
21611;SDS011;47005;52.292;13.452;2023-09-07T07:05:51;9.63;;;6.82;;
21611;SDS011;47005;52.292;13.452;2023-09-07T07:08:17;11.10;;;7.50;;
21611;SDS011;47005;52.292;13.452;2023-09-07T07:10:43;9.35;;;6.88;;
21611;SDS011;47005;52.292;13.452;2023-09-07T07:13:08;8.60;;;6.38;;
21611;SDS011;47005;52.292;13.452;2023-09-07T07:15:34;10.75;;;7.55;;
21611;SDS011;47005;52.292;13.452;2023-09-07T07:18:00;7.78;;;6.22;;
21611;SDS011;47005;52.292;13.452;2023-09-07T07:20:26;9.63;;;6.50;;
21611;SDS011;47005;52.292;13.452;2023-09-07T07:22:52;8.63;;;6.47;;
21611;SDS011;47005;52.292;13.452;2023-09-07T07:25:18;10.65;;;6.25;;
21611;SDS011;47005;52.292;13.452;2023-09-07T07:27:43;6.95;;;5.35;;
21611;SDS011;47005;52.292;13.452;2023-09-07T07:30:11;8.70;;;6.43;;
21611;SDS011;47005;52.292;13.452;2023-09-07T07:32:36;10.20;;;6.10;;
21611;SDS011;47005;52.292;13.452;2023-09-07T07:35:02;6.63;;;5.28;;
21611;SDS011;47005;52.292;13.452;2023-09-07T07:37:28;7.53;;;6.15;;
21611;SDS011;47005;52.292;13.452;2023-09-07T07:39:54;10.35;;;6.40;;
21611;SDS011;47005;52.292;13.452;2023-09-07T07:42:19;7.63;;;5.50;;
21611;SDS011;47005;52.292;13.452;2023-09-07T07:44:45;8.35;;;5.60;;
21611;SDS011;47005;52.292;13.452;2023-09-07T07:47:11;8.20;;;5.25;;
21611;SDS011;47005;52.292;13.452;2023-09-07T07:49:36;8.40;;;5.65;;
21611;SDS011;47005;52.292;13.452;2023-09-07T07:52:02;12.52;;;6.10;;
21611;SDS011;47005;52.292;13.452;2023-09-07T07:54:28;12.07;;;5.75;;
21611;SDS011;47005;52.292;13.452;2023-09-07T07:56:54;10.15;;;5.70;;
21611;SDS011;47005;52.292;13.452;2023-09-07T07:59:19;8.57;;;5.30;;
21611;SDS011;47005;52.292;13.452;2023-09-07T08:01:45;10.45;;;5.53;;
21611;SDS011;47005;52.292;13.452;2023-09-07T08:04:11;10.18;;;5.03;;
21611;SDS011;47005;52.292;13.452;2023-09-07T08:06:37;8.10;;;5.05;;
21611;SDS011;47005;52.292;13.452;2023-09-07T08:09:02;5.95;;;5.00;;
21611;SDS011;47005;52.292;13.452;2023-09-07T08:11:28;6.50;;;5.00;;
21611;SDS011;47005;52.292;13.452;2023-09-07T08:13:54;10.80;;;5.38;;
21611;SDS011;47005;52.292;13.452;2023-09-07T08:16:20;7.00;;;5.22;;
21611;SDS011;47005;52.292;13.452;2023-09-07T08:18:45;7.70;;;5.07;;
21611;SDS011;47005;52.292;13.452;2023-09-07T08:21:13;7.88;;;5.53;;
21611;SDS011;47005;52.292;13.452;2023-09-07T08:23:39;8.52;;;5.85;;
21611;SDS011;47005;52.292;13.452;2023-09-07T08:26:05;10.15;;;5.75;;
21611;SDS011;47005;52.292;13.452;2023-09-07T08:28:31;5.95;;;4.15;;
21611;SDS011;47005;52.292;13.452;2023-09-07T08:30:56;7.07;;;4.57;;
21611;SDS011;47005;52.292;13.452;2023-09-07T08:33:24;7.88;;;5.43;;
21611;SDS011;47005;52.292;13.452;2023-09-07T08:35:58;6.32;;;4.65;;
21611;SDS011;47005;52.292;13.452;2023-09-07T08:38:25;7.80;;;5.15;;
21611;SDS011;47005;52.292;13.452;2023-09-07T08:40:55;6.75;;;4.20;;
21611;SDS011;47005;52.292;13.452;2023-09-07T08:43:23;7.93;;;5.47;;
21611;SDS011;47005;52.292;13.452;2023-09-07T08:45:51;6.75;;;4.80;;
21611;SDS011;47005;52.292;13.452;2023-09-07T08:48:29;6.57;;;4.65;;
21611;SDS011;47005;52.292;13.452;2023-09-07T08:50:55;9.32;;;4.82;;
21611;SDS011;47005;52.292;13.452;2023-09-07T08:53:21;7.07;;;4.53;;
21611;SDS011;47005;52.292;13.452;2023-09-07T08:55:48;6.05;;;4.63;;
21611;SDS011;47005;52.292;13.452;2023-09-07T08:58:14;8.32;;;4.78;;
21611;SDS011;47005;52.292;13.452;2023-09-07T09:00:39;7.40;;;5.32;;
21611;SDS011;47005;52.292;13.452;2023-09-07T09:03:08;8.65;;;5.25;;
21611;SDS011;47005;52.292;13.452;2023-09-07T09:05:35;7.30;;;4.38;;
21611;SDS011;47005;52.292;13.452;2023-09-07T09:08:06;7.07;;;4.75;;
21611;SDS011;47005;52.292;13.452;2023-09-07T09:10:32;12.93;;;5.35;;
21611;SDS011;47005;52.292;13.452;2023-09-07T09:12:58;7.85;;;5.45;;
21611;SDS011;47005;52.292;13.452;2023-09-07T09:15:26;7.47;;;5.03;;
21611;SDS011;47005;52.292;13.452;2023-09-07T09:17:52;5.88;;;4.72;;
21611;SDS011;47005;52.292;13.452;2023-09-07T09:22:51;10.73;;;4.55;;
21611;SDS011;47005;52.292;13.452;2023-09-07T09:25:18;7.78;;;4.93;;
21611;SDS011;47005;52.292;13.452;2023-09-07T09:27:44;7.72;;;5.05;;
21611;SDS011;47005;52.292;13.452;2023-09-07T09:30:11;10.13;;;5.05;;
21611;SDS011;47005;52.292;13.452;2023-09-07T09:32:40;7.75;;;5.28;;
21611;SDS011;47005;52.292;13.452;2023-09-07T09:35:06;9.27;;;4.90;;
21611;SDS011;47005;52.292;13.452;2023-09-07T09:37:33;7.22;;;4.75;;
21611;SDS011;47005;52.292;13.452;2023-09-07T09:39:59;8.50;;;4.97;;
21611;SDS011;47005;52.292;13.452;2023-09-07T09:42:27;8.00;;;5.07;;
21611;SDS011;47005;52.292;13.452;2023-09-07T09:44:52;8.05;;;4.93;;
21611;SDS011;47005;52.292;13.452;2023-09-07T09:47:19;7.00;;;4.47;;
21611;SDS011;47005;52.292;13.452;2023-09-07T09:49:47;10.73;;;4.65;;
21611;SDS011;47005;52.292;13.452;2023-09-07T09:52:14;8.00;;;5.03;;
21611;SDS011;47005;52.292;13.452;2023-09-07T09:54:41;7.05;;;4.35;;
21611;SDS011;47005;52.292;13.452;2023-09-07T09:57:08;7.03;;;4.78;;
21611;SDS011;47005;52.292;13.452;2023-09-07T09:59:34;6.53;;;4.60;;
21611;SDS011;47005;52.292;13.452;2023-09-07T10:01:59;6.72;;;4.60;;
21611;SDS011;47005;52.292;13.452;2023-09-07T10:04:27;8.13;;;3.95;;
21611;SDS011;47005;52.292;13.452;2023-09-07T10:07:03;6.05;;;4.38;;
21611;SDS011;47005;52.292;13.452;2023-09-07T10:09:33;5.97;;;3.80;;
21611;SDS011;47005;52.292;13.452;2023-09-07T10:12:01;8.23;;;4.13;;
21611;SDS011;47005;52.292;13.452;2023-09-07T10:14:38;6.18;;;4.55;;
21611;SDS011;47005;52.292;13.452;2023-09-07T10:17:05;6.65;;;4.57;;
21611;SDS011;47005;52.292;13.452;2023-09-07T10:19:31;6.10;;;4.28;;
21611;SDS011;47005;52.292;13.452;2023-09-07T10:21:58;5.80;;;4.07;;
21611;SDS011;47005;52.292;13.452;2023-09-07T10:24:31;8.27;;;4.18;;
21611;SDS011;47005;52.292;13.452;2023-09-07T10:32:17;5.20;;;4.10;;
21611;SDS011;47005;52.292;13.452;2023-09-07T10:34:43;5.20;;;3.75;;
21611;SDS011;47005;52.292;13.452;2023-09-07T10:37:17;5.82;;;3.65;;
21611;SDS011;47005;52.292;13.452;2023-09-07T10:39:44;6.10;;;4.50;;
21611;SDS011;47005;52.292;13.452;2023-09-07T10:42:23;5.78;;;4.32;;
21611;SDS011;47005;52.292;13.452;2023-09-07T10:44:49;7.45;;;4.28;;
21611;SDS011;47005;52.292;13.452;2023-09-07T10:47:15;6.95;;;4.28;;
21611;SDS011;47005;52.292;13.452;2023-09-07T10:49:41;6.80;;;4.32;;
21611;SDS011;47005;52.292;13.452;2023-09-07T10:52:07;8.38;;;4.20;;
21611;SDS011;47005;52.292;13.452;2023-09-07T10:54:33;6.10;;;3.50;;
21611;SDS011;47005;52.292;13.452;2023-09-07T10:57:07;5.65;;;4.13;;
21611;SDS011;47005;52.292;13.452;2023-09-07T10:59:33;6.43;;;4.13;;
21611;SDS011;47005;52.292;13.452;2023-09-07T11:02:02;5.03;;;3.45;;
21611;SDS011;47005;52.292;13.452;2023-09-07T11:04:31;7.70;;;3.85;;
21611;SDS011;47005;52.292;13.452;2023-09-07T11:06:57;4.95;;;3.72;;
21611;SDS011;47005;52.292;13.452;2023-09-07T11:09:23;6.20;;;3.92;;
21611;SDS011;47005;52.292;13.452;2023-09-07T11:11:49;4.93;;;3.70;;
21611;SDS011;47005;52.292;13.452;2023-09-07T11:14:15;6.75;;;3.80;;
21611;SDS011;47005;52.292;13.452;2023-09-07T11:16:40;7.28;;;3.47;;
21611;SDS011;47005;52.292;13.452;2023-09-07T11:19:08;4.97;;;3.25;;
21611;SDS011;47005;52.292;13.452;2023-09-07T11:21:34;4.85;;;3.15;;
21611;SDS011;47005;52.292;13.452;2023-09-07T11:24:01;5.82;;;3.22;;
21611;SDS011;47005;52.292;13.452;2023-09-07T11:26:29;9.88;;;3.08;;
21611;SDS011;47005;52.292;13.452;2023-09-07T11:29:05;3.92;;;2.42;;
21611;SDS011;47005;52.292;13.452;2023-09-07T11:31:31;6.03;;;3.65;;
21611;SDS011;47005;52.292;13.452;2023-09-07T11:33:57;5.43;;;2.80;;
21611;SDS011;47005;52.292;13.452;2023-09-07T11:36:22;4.22;;;2.83;;
21611;SDS011;47005;52.292;13.452;2023-09-07T11:38:49;5.03;;;3.53;;
21611;SDS011;47005;52.292;13.452;2023-09-07T11:41:15;6.55;;;3.63;;
21611;SDS011;47005;52.292;13.452;2023-09-07T11:43:40;4.38;;;2.83;;
21611;SDS011;47005;52.292;13.452;2023-09-07T11:46:07;5.13;;;3.50;;
21611;SDS011;47005;52.292;13.452;2023-09-07T11:48:33;7.68;;;3.63;;
21611;SDS011;47005;52.292;13.452;2023-09-07T11:50:59;5.38;;;3.42;;
21611;SDS011;47005;52.292;13.452;2023-09-07T11:53:25;6.57;;;3.40;;
21611;SDS011;47005;52.292;13.452;2023-09-07T11:55:51;4.97;;;3.60;;
21611;SDS011;47005;52.292;13.452;2023-09-07T11:58:17;4.25;;;3.05;;
21611;SDS011;47005;52.292;13.452;2023-09-07T12:00:42;4.93;;;3.42;;
21611;SDS011;47005;52.292;13.452;2023-09-07T12:03:08;6.47;;;3.13;;
21611;SDS011;47005;52.292;13.452;2023-09-07T12:05:34;8.65;;;3.15;;
21611;SDS011;47005;52.292;13.452;2023-09-07T12:08:00;4.75;;;2.95;;
21611;SDS011;47005;52.292;13.452;2023-09-07T12:10:26;4.75;;;3.33;;
21611;SDS011;47005;52.292;13.452;2023-09-07T12:12:52;5.15;;;3.53;;
21611;SDS011;47005;52.292;13.452;2023-09-07T12:15:17;4.13;;;2.75;;
21611;SDS011;47005;52.292;13.452;2023-09-07T12:17:43;5.95;;;3.60;;
21611;SDS011;47005;52.292;13.452;2023-09-07T12:20:09;5.65;;;3.45;;
21611;SDS011;47005;52.292;13.452;2023-09-07T12:22:38;7.53;;;3.38;;
21611;SDS011;47005;52.292;13.452;2023-09-07T12:25:04;4.60;;;3.40;;
21611;SDS011;47005;52.292;13.452;2023-09-07T12:27:35;6.50;;;3.60;;
21611;SDS011;47005;52.292;13.452;2023-09-07T12:30:01;4.40;;;3.17;;
21611;SDS011;47005;52.292;13.452;2023-09-07T12:32:31;4.90;;;3.00;;
21611;SDS011;47005;52.292;13.452;2023-09-07T12:34:57;5.25;;;3.35;;
21611;SDS011;47005;52.292;13.452;2023-09-07T12:37:23;6.85;;;3.50;;
21611;SDS011;47005;52.292;13.452;2023-09-07T12:39:49;6.72;;;3.90;;
21611;SDS011;47005;52.292;13.452;2023-09-07T12:42:16;6.13;;;3.72;;
21611;SDS011;47005;52.292;13.452;2023-09-07T12:44:42;6.28;;;3.85;;
21611;SDS011;47005;52.292;13.452;2023-09-07T12:47:08;4.68;;;3.25;;
21611;SDS011;47005;52.292;13.452;2023-09-07T12:49:34;7.93;;;4.03;;
21611;SDS011;47005;52.292;13.452;2023-09-07T12:51:59;6.25;;;3.20;;
21611;SDS011;47005;52.292;13.452;2023-09-07T12:54:25;6.90;;;3.65;;
21611;SDS011;47005;52.292;13.452;2023-09-07T12:56:51;7.22;;;3.67;;
21611;SDS011;47005;52.292;13.452;2023-09-07T12:59:17;6.38;;;3.90;;
21611;SDS011;47005;52.292;13.452;2023-09-07T13:01:43;5.90;;;3.70;;
21611;SDS011;47005;52.292;13.452;2023-09-07T13:04:08;5.88;;;3.92;;
21611;SDS011;47005;52.292;13.452;2023-09-07T13:06:36;6.60;;;3.95;;
21611;SDS011;47005;52.292;13.452;2023-09-07T13:09:02;6.15;;;3.63;;
21611;SDS011;47005;52.292;13.452;2023-09-07T13:11:29;6.85;;;4.10;;
21611;SDS011;47005;52.292;13.452;2023-09-07T13:13:55;6.30;;;3.97;;
21611;SDS011;47005;52.292;13.452;2023-09-07T13:16:21;5.93;;;3.67;;
21611;SDS011;47005;52.292;13.452;2023-09-07T13:18:47;5.93;;;3.85;;
21611;SDS011;47005;52.292;13.452;2023-09-07T13:21:12;7.82;;;3.80;;
21611;SDS011;47005;52.292;13.452;2023-09-07T13:23:38;6.20;;;3.75;;
21611;SDS011;47005;52.292;13.452;2023-09-07T13:26:03;5.93;;;3.60;;
21611;SDS011;47005;52.292;13.452;2023-09-07T13:28:29;5.55;;;4.30;;
21611;SDS011;47005;52.292;13.452;2023-09-07T13:30:55;5.03;;;3.58;;
21611;SDS011;47005;52.292;13.452;2023-09-07T13:33:20;6.15;;;3.67;;
21611;SDS011;47005;52.292;13.452;2023-09-07T13:35:46;6.53;;;3.90;;
21611;SDS011;47005;52.292;13.452;2023-09-07T13:38:12;4.90;;;3.85;;
21611;SDS011;47005;52.292;13.452;2023-09-07T13:40:38;6.80;;;3.83;;
21611;SDS011;47005;52.292;13.452;2023-09-07T13:43:04;6.30;;;3.92;;
21611;SDS011;47005;52.292;13.452;2023-09-07T13:45:29;4.15;;;2.95;;
21611;SDS011;47005;52.292;13.452;2023-09-07T13:47:55;6.78;;;4.10;;
21611;SDS011;47005;52.292;13.452;2023-09-07T13:50:21;4.63;;;3.70;;
21611;SDS011;47005;52.292;13.452;2023-09-07T13:52:47;6.00;;;3.58;;
21611;SDS011;47005;52.292;13.452;2023-09-07T13:55:14;6.53;;;3.33;;
21611;SDS011;47005;52.292;13.452;2023-09-07T13:57:40;6.07;;;3.13;;
21611;SDS011;47005;52.292;13.452;2023-09-07T14:00:05;6.07;;;3.95;;
21611;SDS011;47005;52.292;13.452;2023-09-07T14:02:31;6.55;;;3.70;;
21611;SDS011;47005;52.292;13.452;2023-09-07T14:05:00;5.55;;;3.80;;
21611;SDS011;47005;52.292;13.452;2023-09-07T14:07:25;7.68;;;4.65;;
21611;SDS011;47005;52.292;13.452;2023-09-07T14:09:51;5.32;;;3.38;;
21611;SDS011;47005;52.292;13.452;2023-09-07T14:12:18;5.20;;;3.75;;
21611;SDS011;47005;52.292;13.452;2023-09-07T14:14:44;5.03;;;3.17;;
21611;SDS011;47005;52.292;13.452;2023-09-07T14:17:10;7.25;;;4.43;;
21611;SDS011;47005;52.292;13.452;2023-09-07T14:19:35;4.88;;;3.47;;
21611;SDS011;47005;52.292;13.452;2023-09-07T14:22:01;5.07;;;3.28;;
21611;SDS011;47005;52.292;13.452;2023-09-07T14:24:27;8.30;;;3.83;;
21611;SDS011;47005;52.292;13.452;2023-09-07T14:26:52;5.28;;;3.13;;
21611;SDS011;47005;52.292;13.452;2023-09-07T14:29:18;6.03;;;3.72;;
21611;SDS011;47005;52.292;13.452;2023-09-07T14:31:44;8.13;;;3.58;;
21611;SDS011;47005;52.292;13.452;2023-09-07T14:34:10;10.18;;;4.43;;